createdAt,value
2018-12-19T00:00:45.148Z,39.43
2018-12-19T00:05:41.652Z,43.20
2018-12-19T00:10:36.144Z,41.87
2018-12-19T00:15:30.663Z,44.47
2018-12-19T00:20:25.139Z,30.23
2018-12-19T00:25:19.620Z,39.83
2018-12-19T00:30:16.563Z,34.03
2018-12-19T00:35:13.119Z,39.63
2018-12-19T00:40:07.606Z,35.07
2018-12-19T00:45:02.936Z,36.23
2018-12-19T00:49:58.564Z,35.63
2018-12-19T00:54:53.060Z,35.40
2018-12-19T00:59:47.562Z,35.00
2018-12-19T01:04:47.953Z,36.17
2018-12-19T01:09:38.533Z,40.40
2018-12-19T01:14:34.064Z,40.23
2018-12-19T01:19:28.483Z,42.57
2018-12-19T01:24:23.009Z,39.17
2018-12-19T01:29:17.499Z,37.13
2018-12-19T01:34:11.998Z,33.37
2018-12-19T01:39:08.243Z,37.57
2018-12-19T01:44:02.716Z,39.57
2018-12-19T01:48:57.131Z,34.97
2018-12-19T01:53:51.696Z,34.90
2018-12-19T01:58:46.159Z,30.33
2018-12-19T02:03:40.657Z,34.50
2018-12-19T02:08:35.108Z,34.47
2018-12-19T02:13:29.629Z,32.10
2018-12-19T02:18:24.193Z,32.00
2018-12-19T02:23:18.649Z,28.23
2018-12-19T02:28:16.166Z,22.33
2018-12-19T02:33:10.663Z,22.20
2018-12-19T02:38:05.156Z,22.40
2018-12-19T02:42:59.665Z,22.03
2018-12-19T02:47:54.163Z,21.60
2018-12-19T02:52:48.657Z,17.73
2018-12-19T02:57:43.144Z,20.97
2018-12-19T03:02:37.705Z,15.47
2018-12-19T03:07:32.345Z,15.23
2018-12-19T03:12:26.847Z,15.67
2018-12-19T03:17:21.320Z,14.10
2018-12-19T03:22:15.821Z,16.70
2018-12-19T03:27:10.281Z,17.47
2018-12-19T03:32:04.792Z,14.23
2018-12-19T03:36:59.261Z,14.30
2018-12-19T03:41:53.785Z,14.67
2018-12-19T03:46:48.252Z,15.77
2018-12-19T03:51:43.076Z,17.73
2018-12-19T03:56:38.890Z,15.37
2018-12-19T04:01:33.438Z,12.03
2018-12-19T04:06:27.964Z,13.80
2018-12-19T04:11:22.440Z,15.60
2018-12-19T04:16:16.905Z,14.90
2018-12-19T04:21:11.379Z,14.13
2018-12-19T04:26:05.993Z,14.93
2018-12-19T04:31:00.460Z,14.87
2018-12-19T04:35:55.088Z,17.17
2018-12-19T04:40:49.544Z,16.40
2018-12-19T04:45:45.115Z,15.00
2018-12-19T04:50:39.665Z,16.93
2018-12-19T04:55:34.141Z,19.17
2018-12-19T05:00:28.628Z,21.77
2018-12-19T05:05:23.104Z,19.00
2018-12-19T05:10:17.613Z,18.50
2018-12-19T05:15:12.108Z,20.97
2018-12-19T05:20:08.750Z,19.03
2018-12-19T05:25:03.232Z,28.60
2018-12-19T05:30:18.113Z,31.63
2018-12-19T05:35:12.908Z,20.20
2018-12-19T05:40:08.896Z,18.70
2018-12-19T05:45:03.553Z,15.60
2018-12-19T05:49:58.321Z,20.63
2018-12-19T05:54:52.819Z,18.20
2018-12-19T05:59:47.328Z,20.40
2018-12-19T06:04:41.836Z,20.57
2018-12-19T06:09:36.345Z,19.13
2018-12-19T06:14:30.849Z,17.30
2018-12-19T06:19:25.348Z,17.93
2018-12-19T06:24:19.843Z,15.07
2018-12-19T06:29:14.331Z,18.40
2018-12-19T06:34:08.917Z,19.20
2018-12-19T06:39:04.070Z,20.77
2018-12-19T06:43:58.588Z,21.67
2018-12-19T06:48:53.067Z,21.57
2018-12-19T06:53:47.936Z,22.43
2018-12-19T06:58:43.100Z,19.27
2018-12-19T07:03:37.699Z,28.10
2018-12-19T07:08:32.564Z,31.13
2018-12-19T07:13:27.481Z,26.37
2018-12-19T07:18:21.961Z,28.83
2018-12-19T07:23:16.444Z,27.40
2018-12-19T07:28:10.912Z,26.87
2018-12-19T07:33:05.377Z,31.60
2018-12-19T07:37:59.869Z,33.70
2018-12-19T07:42:54.337Z,32.13
2018-12-19T07:47:48.746Z,36.70
2018-12-19T07:52:44.200Z,33.53
2018-12-19T07:57:38.668Z,36.83
2018-12-19T08:02:33.187Z,32.37
2018-12-19T08:07:27.685Z,30.73
2018-12-19T08:12:22.161Z,31.03
2018-12-19T08:17:16.624Z,35.23
2018-12-19T08:22:11.172Z,28.13
2018-12-19T08:27:05.644Z,27.53
2018-12-19T08:32:00.145Z,34.57
2018-12-19T08:36:54.842Z,35.23
2018-12-19T08:41:49.731Z,36.43
2018-12-19T08:46:44.222Z,36.90
2018-12-19T08:51:38.935Z,35.37
2018-12-19T08:56:33.428Z,33.77
2018-12-19T09:01:27.960Z,28.90
2018-12-19T09:06:23.088Z,29.97
2018-12-19T09:11:17.550Z,30.07
2018-12-19T09:16:12.052Z,28.73
2018-12-19T09:21:06.553Z,25.73
2018-12-19T09:26:01.104Z,29.10
2018-12-19T09:30:55.600Z,30.40
2018-12-19T09:35:50.132Z,27.87
2018-12-19T09:40:44.589Z,27.77
2018-12-19T09:45:39.271Z,27.30
2018-12-19T09:50:33.773Z,31.67
2018-12-19T09:55:28.326Z,32.90
2018-12-19T10:00:27.777Z,32.97
2018-12-19T10:05:22.263Z,33.90
2018-12-19T10:10:16.728Z,38.70
2018-12-19T10:15:11.204Z,31.50
2018-12-19T10:20:05.811Z,31.03
2018-12-19T10:25:06.112Z,27.93
2018-12-19T10:30:00.579Z,28.30
2018-12-19T10:34:55.112Z,29.13
2018-12-19T10:39:49.576Z,29.73
2018-12-19T10:44:44.069Z,28.67
2018-12-19T10:49:38.541Z,26.03
2018-12-19T10:54:33.052Z,24.93
2018-12-19T10:59:27.558Z,25.73
2018-12-19T11:04:22.056Z,22.63
2018-12-19T11:09:16.567Z,22.20
2018-12-19T11:14:11.060Z,22.37
2018-12-19T11:19:05.544Z,23.77
2018-12-19T11:24:00.156Z,25.97
2018-12-19T11:28:54.644Z,24.93
2018-12-19T11:33:49.253Z,24.17
2018-12-19T11:38:43.737Z,23.40
2018-12-19T11:43:38.272Z,24.63
2018-12-19T11:48:32.748Z,20.87
2018-12-19T11:53:27.265Z,22.77
2018-12-19T11:58:21.735Z,24.67
2018-12-19T12:03:16.213Z,24.13
2018-12-19T12:08:10.678Z,25.77
2018-12-19T12:13:05.144Z,26.57
2018-12-19T12:17:59.617Z,32.70
2018-12-19T12:22:54.127Z,30.47
2018-12-19T12:27:48.596Z,33.23
2018-12-19T12:32:43.060Z,33.93
2018-12-19T12:37:37.565Z,31.20
2018-12-19T12:42:32.068Z,32.60
2018-12-19T12:47:26.752Z,42.27
2018-12-19T12:52:21.242Z,39.13
2018-12-19T12:57:15.718Z,38.20
2018-12-19T13:02:10.181Z,37.20
2018-12-19T13:07:04.706Z,43.03
2018-12-19T13:11:59.185Z,43.97
2018-12-19T13:16:53.644Z,46.83
2018-12-19T13:21:48.180Z,37.47
2018-12-19T13:26:42.643Z,39.40
2018-12-19T13:31:37.128Z,34.80
2018-12-19T13:36:31.594Z,32.47
2018-12-19T13:41:26.065Z,34.00
2018-12-19T13:46:20.547Z,35.27
2018-12-19T13:51:15.132Z,36.00
2018-12-19T13:56:09.663Z,35.13
2018-12-19T14:01:04.198Z,42.43
2018-12-19T14:05:58.692Z,42.03
2018-12-19T14:10:53.215Z,46.80
2018-12-19T14:15:47.724Z,42.30
2018-12-19T14:20:42.210Z,46.93
2018-12-19T14:25:36.679Z,44.77
2018-12-19T14:30:31.228Z,42.50
2018-12-19T14:35:25.726Z,47.00
2018-12-19T14:40:20.272Z,45.93
2018-12-19T14:45:14.904Z,48.33
2018-12-19T14:50:09.522Z,44.27
2018-12-19T14:55:04.101Z,46.07
2018-12-19T14:59:58.569Z,41.13
2018-12-19T15:04:53.053Z,48.87
2018-12-19T15:09:47.649Z,43.37
2018-12-19T15:14:42.260Z,48.10
2018-12-19T15:19:36.752Z,43.67
2018-12-19T15:24:31.337Z,42.17
2018-12-19T15:29:26.015Z,39.77
2018-12-19T15:34:20.480Z,38.23
2018-12-19T15:39:15.029Z,41.13
2018-12-19T15:44:09.532Z,41.53
2018-12-19T15:49:04.064Z,41.47
2018-12-19T15:53:58.660Z,39.43
2018-12-19T15:58:53.264Z,39.17
2018-12-19T16:03:47.793Z,35.67
2018-12-19T16:08:42.340Z,37.23
2018-12-19T16:13:37.032Z,38.90
2018-12-19T16:18:31.520Z,37.90
2018-12-19T16:23:26.140Z,46.87
2018-12-19T16:28:20.605Z,44.93
2018-12-19T16:33:15.205Z,44.13
2018-12-19T16:38:09.667Z,41.27
2018-12-19T16:43:04.137Z,46.93
2018-12-19T16:47:58.604Z,58.63
2018-12-19T16:52:53.068Z,75.80
2018-12-19T16:57:47.561Z,69.27
2018-12-19T17:02:42.058Z,52.07
2018-12-19T17:07:36.539Z,49.67
2018-12-19T17:12:30.952Z,46.63
2018-12-19T17:17:25.372Z,51.97
2018-12-19T17:22:19.844Z,54.60
2018-12-19T17:27:14.304Z,53.70
2018-12-19T17:32:09.078Z,48.87
2018-12-19T17:37:03.564Z,43.03
2018-12-19T17:41:59.176Z,45.40
2018-12-19T17:46:53.597Z,38.13
2018-12-19T17:51:48.600Z,37.77
2018-12-19T17:56:43.015Z,35.73
2018-12-19T18:01:37.541Z,42.00
2018-12-19T18:06:31.958Z,53.83
2018-12-19T18:11:26.372Z,55.00
2018-12-19T18:16:20.827Z,43.03
2018-12-19T18:21:15.362Z,41.47
2018-12-19T18:26:10.762Z,44.13
2018-12-19T18:31:05.454Z,45.40
2018-12-19T18:35:59.896Z,48.13
2018-12-19T18:40:54.373Z,51.47
2018-12-19T18:45:48.804Z,55.63
2018-12-19T18:50:43.234Z,51.47
2018-12-19T18:55:37.634Z,55.13
2018-12-19T19:00:36.133Z,59.70
2018-12-19T19:05:31.023Z,50.77
2018-12-19T19:10:25.545Z,56.67
2018-12-19T19:15:19.929Z,60.23
2018-12-19T19:20:14.369Z,52.20
2018-12-19T19:25:09.454Z,49.43
2018-12-19T19:30:04.933Z,53.90
2018-12-19T19:34:59.345Z,61.27
2018-12-19T19:39:53.875Z,59.43
2018-12-19T19:44:48.352Z,59.37
2018-12-19T19:49:42.913Z,64.67
2018-12-19T19:54:37.351Z,55.60
2018-12-19T19:59:31.781Z,59.50
2018-12-19T20:04:26.231Z,59.80
2018-12-19T20:09:20.709Z,47.00
2018-12-19T20:14:15.341Z,51.57
2018-12-19T20:19:09.992Z,58.80
2018-12-19T20:24:04.825Z,63.80
2018-12-19T20:28:59.466Z,65.53
2018-12-19T20:33:54.336Z,65.87
2018-12-19T20:38:49.330Z,68.23
2018-12-19T20:43:45.103Z,52.17
2018-12-19T20:48:39.661Z,57.57
2018-12-19T20:53:34.326Z,66.17
2018-12-19T20:58:29.005Z,67.17
2018-12-19T21:03:24.488Z,59.83
2018-12-19T21:08:18.921Z,60.20
2018-12-19T21:13:13.452Z,51.97
2018-12-19T21:18:13.055Z,53.17
2018-12-19T21:23:07.457Z,49.83
2018-12-19T21:28:01.868Z,51.73
2018-12-19T21:32:56.429Z,50.23
2018-12-19T21:37:50.976Z,47.97
2018-12-19T21:42:45.602Z,45.77
2018-12-19T21:47:40.144Z,45.87
2018-12-19T21:52:34.605Z,48.43
2018-12-19T21:57:29.135Z,47.67
2018-12-19T22:02:23.546Z,48.53
2018-12-19T22:07:18.176Z,48.03
2018-12-19T22:12:12.661Z,48.27
2018-12-19T22:17:12.327Z,47.77
2018-12-19T22:22:06.840Z,49.03
2018-12-19T22:27:01.408Z,47.60
2018-12-19T22:32:02.423Z,44.97
2018-12-19T22:36:56.815Z,48.47
2018-12-19T22:41:52.779Z,46.27
2018-12-19T22:46:48.475Z,48.00
2018-12-19T22:51:43.192Z,46.23
2018-12-19T22:56:37.684Z,45.17
2018-12-19T23:01:37.585Z,46.50
2018-12-19T23:06:32.237Z,47.27
2018-12-19T23:11:26.877Z,49.63
2018-12-19T23:16:21.455Z,45.23
2018-12-19T23:21:21.894Z,43.17
2018-12-19T23:26:22.089Z,42.50
2018-12-19T23:31:18.506Z,47.57
2018-12-19T23:36:12.881Z,47.13
2018-12-19T23:41:07.349Z,84.93
2018-12-19T23:46:01.809Z,62.67
2018-12-19T23:50:56.512Z,56.57
2018-12-19T23:55:50.970Z,45.90
